createdAt,value
2019-02-26T00:00:51.937Z,99.90
2019-02-26T00:01:59.768Z,99.90
2019-02-26T00:03:04.760Z,99.90
2019-02-26T00:04:10.500Z,99.90
2019-02-26T00:05:17.360Z,99.90
2019-02-26T00:06:24.798Z,99.90
2019-02-26T00:07:32.075Z,99.90
2019-02-26T00:08:41.732Z,99.90
2019-02-26T00:09:51.197Z,99.90
2019-02-26T00:10:58.580Z,99.90
2019-02-26T00:12:02.404Z,99.90
2019-02-26T00:13:07.315Z,99.90
2019-02-26T00:14:20.244Z,99.90
2019-02-26T00:15:24.496Z,99.90
2019-02-26T00:16:29.835Z,99.90
2019-02-26T00:17:45.300Z,99.90
2019-02-26T00:18:51.256Z,99.90
2019-02-26T00:20:05.771Z,99.90
2019-02-26T00:21:10.861Z,99.90
2019-02-26T00:22:18.108Z,99.90
2019-02-26T00:23:23.731Z,99.90
2019-02-26T00:24:35.040Z,99.90
2019-02-26T00:25:43.702Z,99.90
2019-02-26T00:26:56.149Z,99.90
2019-02-26T00:28:11.550Z,99.90
2019-02-26T00:29:16.495Z,99.90
2019-02-26T00:30:21.328Z,99.90
2019-02-26T00:31:28.752Z,99.90
2019-02-26T00:32:33.911Z,99.90
2019-02-26T00:33:43.386Z,99.90
2019-02-26T00:34:48.399Z,99.90
2019-02-26T00:35:53.337Z,99.90
2019-02-26T00:37:00.027Z,99.90
2019-02-26T00:38:06.183Z,99.90
2019-02-26T00:39:11.460Z,99.90
2019-02-26T00:40:19.547Z,99.90
2019-02-26T00:41:24.681Z,99.90
2019-02-26T00:42:32.007Z,99.90
2019-02-26T00:43:37.189Z,99.90
2019-02-26T00:44:42.027Z,99.90
2019-02-26T00:45:46.897Z,99.90
2019-02-26T00:46:55.395Z,99.90
2019-02-26T00:48:00.250Z,99.90
2019-02-26T00:49:07.454Z,99.90
2019-02-26T00:50:14.071Z,99.90
2019-02-26T00:51:21.037Z,99.90
2019-02-26T00:52:25.903Z,99.90
2019-02-26T00:53:32.886Z,99.90
2019-02-26T00:54:37.383Z,99.90
2019-02-26T00:55:42.427Z,99.90
2019-02-26T00:56:47.646Z,99.90
2019-02-26T00:57:52.599Z,99.90
2019-02-26T00:58:59.455Z,99.90
2019-02-26T01:00:05.330Z,99.90
2019-02-26T01:01:12.962Z,99.90
2019-02-26T01:02:18.196Z,99.90
2019-02-26T01:03:23.355Z,99.90
2019-02-26T01:04:28.590Z,99.90
2019-02-26T01:05:34.046Z,99.90
2019-02-26T01:06:39.953Z,99.90
2019-02-26T01:07:47.416Z,99.90
2019-02-26T01:08:52.150Z,99.90
2019-02-26T01:09:59.224Z,99.90
2019-02-26T01:11:07.765Z,99.90
2019-02-26T01:12:13.658Z,99.90
2019-02-26T01:13:20.273Z,99.90
2019-02-26T01:14:25.169Z,99.90
2019-02-26T01:15:30.035Z,99.90
2019-02-26T01:16:37.134Z,99.90
2019-02-26T01:17:42.245Z,99.90
2019-02-26T01:18:49.369Z,99.90
2019-02-26T01:19:58.766Z,99.90
2019-02-26T01:21:04.304Z,99.90
2019-02-26T01:22:09.733Z,99.90
2019-02-26T01:23:16.459Z,99.90
2019-02-26T01:24:23.545Z,99.90
2019-02-26T01:25:28.314Z,99.90
2019-02-26T01:26:33.307Z,99.90
2019-02-26T01:27:38.213Z,99.90
2019-02-26T01:28:46.172Z,99.90
2019-02-26T01:29:53.195Z,99.90
2019-02-26T01:30:57.926Z,99.90
2019-02-26T01:32:03.216Z,99.90
2019-02-26T01:33:09.699Z,99.90
2019-02-26T01:34:15.859Z,99.90
2019-02-26T01:35:21.479Z,99.90
2019-02-26T01:36:26.362Z,99.90
2019-02-26T01:37:36.174Z,99.90
2019-02-26T01:38:41.666Z,99.90
2019-02-26T01:39:49.600Z,99.90
2019-02-26T01:40:55.869Z,99.90
2019-02-26T01:42:00.504Z,99.90
2019-02-26T01:43:05.661Z,99.90
2019-02-26T01:44:10.648Z,99.90
2019-02-26T01:45:15.671Z,99.90
2019-02-26T01:46:20.513Z,99.90
2019-02-26T01:47:26.372Z,99.90
2019-02-26T01:48:32.180Z,99.90
2019-02-26T01:49:39.775Z,99.90
2019-02-26T01:50:44.937Z,99.90
2019-02-26T01:51:51.689Z,99.90
2019-02-26T01:52:58.511Z,99.90
2019-02-26T01:54:02.845Z,99.90
2019-02-26T01:55:09.433Z,99.90
2019-02-26T01:56:14.349Z,99.90
2019-02-26T01:57:19.161Z,99.90
2019-02-26T01:58:24.973Z,99.90
2019-02-26T01:59:31.748Z,99.90
2019-02-26T02:00:36.333Z,99.90
2019-02-26T02:01:44.183Z,99.90
2019-02-26T02:02:48.177Z,99.90
2019-02-26T02:03:55.845Z,99.90
2019-02-26T02:05:00.134Z,99.90
2019-02-26T02:06:06.642Z,99.90
2019-02-26T02:07:12.541Z,99.90
2019-02-26T02:08:18.607Z,99.90
2019-02-26T02:09:25.149Z,99.90
2019-02-26T02:10:30.391Z,99.90
2019-02-26T02:11:37.611Z,99.90
2019-02-26T02:12:42.549Z,99.90
2019-02-26T02:13:49.018Z,99.90
2019-02-26T02:14:53.814Z,99.90
2019-02-26T02:15:59.733Z,99.90
2019-02-26T02:17:08.504Z,99.90
2019-02-26T02:18:14.461Z,99.90
2019-02-26T02:19:22.264Z,99.90
2019-02-26T02:20:26.261Z,99.90
2019-02-26T02:21:33.267Z,99.90
2019-02-26T02:22:39.842Z,99.90
2019-02-26T02:23:46.544Z,99.90
2019-02-26T02:24:53.529Z,99.90
2019-02-26T02:26:02.184Z,99.90
2019-02-26T02:27:04.786Z,99.90
2019-02-26T02:28:09.674Z,99.90
2019-02-26T02:29:16.546Z,99.90
2019-02-26T02:30:26.765Z,99.90
2019-02-26T02:31:31.391Z,99.90
2019-02-26T02:32:34.569Z,99.90
2019-02-26T02:33:39.483Z,99.90
2019-02-26T02:34:44.294Z,99.90
2019-02-26T02:35:49.106Z,99.90
2019-02-26T02:36:54.074Z,99.90
2019-02-26T02:38:01.700Z,99.90
2019-02-26T02:39:10.362Z,99.90
2019-02-26T02:40:14.049Z,99.90
2019-02-26T02:41:18.881Z,99.90
2019-02-26T02:42:23.828Z,99.90
2019-02-26T02:43:29.177Z,99.90
2019-02-26T02:44:34.449Z,99.90
2019-02-26T02:45:43.079Z,99.90
2019-02-26T02:46:47.908Z,99.90
2019-02-26T02:47:57.706Z,99.90
2019-02-26T02:48:59.408Z,99.90
2019-02-26T02:50:09.156Z,99.90
2019-02-26T02:51:13.814Z,99.90
2019-02-26T02:52:18.926Z,99.90
2019-02-26T02:53:24.522Z,99.90
2019-02-26T02:54:30.233Z,99.90
2019-02-26T02:55:37.757Z,99.90
2019-02-26T02:56:44.337Z,99.90
2019-02-26T02:57:52.363Z,99.90
2019-02-26T02:58:55.683Z,99.90
2019-02-26T03:00:02.627Z,99.90
2019-02-26T03:01:07.106Z,99.90
2019-02-26T03:02:14.416Z,99.90
2019-02-26T03:03:19.049Z,99.90
2019-02-26T03:04:27.863Z,99.90
2019-02-26T03:05:32.115Z,99.90
2019-02-26T03:06:38.682Z,99.90
2019-02-26T03:07:46.016Z,99.90
2019-02-26T03:08:51.097Z,99.90
2019-02-26T03:09:57.937Z,99.90
2019-02-26T03:11:03.847Z,99.90
2019-02-26T03:12:08.690Z,99.90
2019-02-26T03:13:14.423Z,99.90
2019-02-26T03:14:20.663Z,99.90
2019-02-26T03:15:27.362Z,99.90
2019-02-26T03:16:32.614Z,99.90
2019-02-26T03:17:37.458Z,99.90
2019-02-26T03:18:45.377Z,99.90
2019-02-26T03:19:50.190Z,99.90
2019-02-26T03:20:56.702Z,99.90
2019-02-26T03:22:01.467Z,99.90
2019-02-26T03:23:08.687Z,99.90
2019-02-26T03:24:12.955Z,99.90
2019-02-26T03:25:20.986Z,99.90
2019-02-26T03:26:25.923Z,99.90
2019-02-26T03:27:33.642Z,99.90
2019-02-26T03:28:39.501Z,99.90
2019-02-26T03:29:45.065Z,99.90
2019-02-26T03:30:50.537Z,99.90
2019-02-26T03:31:55.620Z,99.90
2019-02-26T03:33:04.463Z,99.90
2019-02-26T03:34:10.428Z,99.90
2019-02-26T03:35:16.651Z,99.90
2019-02-26T03:36:21.789Z,99.90
2019-02-26T03:37:28.817Z,99.90
2019-02-26T03:38:33.284Z,99.90
2019-02-26T03:39:38.467Z,99.90
2019-02-26T03:40:43.247Z,99.90
2019-02-26T03:41:48.638Z,99.90
2019-02-26T03:42:54.517Z,99.90
2019-02-26T03:46:10.509Z,99.90
2019-02-26T03:48:21.317Z,99.90
2019-02-26T03:49:27.029Z,99.90
2019-02-26T03:51:39.102Z,99.90
2019-02-26T03:52:43.248Z,99.90
2019-02-26T03:53:48.108Z,99.90
2019-02-26T03:54:52.987Z,99.90
2019-02-26T03:56:02.010Z,99.90
2019-02-26T03:57:04.904Z,99.90
2019-02-26T03:58:09.734Z,99.90
2019-02-26T03:59:14.606Z,99.90
2019-02-26T04:00:20.431Z,99.90
2019-02-26T04:01:25.537Z,99.90
2019-02-26T04:02:30.311Z,99.90
2019-02-26T04:03:37.087Z,99.90
2019-02-26T04:04:41.813Z,99.90
2019-02-26T04:05:46.651Z,99.90
2019-02-26T04:06:51.448Z,99.90
2019-02-26T04:07:58.918Z,99.90
2019-02-26T04:09:02.870Z,99.90
2019-02-26T04:10:08.761Z,99.90
2019-02-26T04:11:13.799Z,99.90
2019-02-26T04:12:20.918Z,99.90
2019-02-26T04:13:25.836Z,99.90
2019-02-26T04:14:30.765Z,99.90
2019-02-26T04:15:36.450Z,99.90
2019-02-26T04:16:43.603Z,99.90
2019-02-26T04:17:48.651Z,99.90
2019-02-26T04:18:53.422Z,99.90
2019-02-26T04:19:58.267Z,99.90
2019-02-26T04:21:05.738Z,99.90
2019-02-26T04:22:31.278Z,99.90
2019-02-26T04:23:38.953Z,99.90
2019-02-26T04:24:42.636Z,99.90
2019-02-26T04:26:18.532Z,99.90
2019-02-26T04:28:02.659Z,99.90
2019-02-26T04:29:21.690Z,99.90
2019-02-26T04:33:24.368Z,99.90
2019-02-26T04:35:02.876Z,99.90
2019-02-26T04:36:25.432Z,99.90
2019-02-26T04:38:03.538Z,99.90
2019-02-26T04:39:53.287Z,99.90
2019-02-26T04:41:35.511Z,99.90
2019-02-26T04:43:15.381Z,99.90
2019-02-26T04:44:55.172Z,99.90
2019-02-26T04:46:39.553Z,99.90
2019-02-26T04:47:48.222Z,99.90
2019-02-26T04:48:50.883Z,99.90
2019-02-26T04:49:57.258Z,99.90
2019-02-26T04:51:02.209Z,99.90
2019-02-26T04:52:08.574Z,99.90
2019-02-26T04:55:27.191Z,99.90
2019-02-26T04:56:33.848Z,99.90
2019-02-26T04:57:40.179Z,99.90
2019-02-26T04:58:45.882Z,99.90
2019-02-26T04:59:51.118Z,99.90
2019-02-26T05:00:55.889Z,99.90
2019-02-26T05:02:00.861Z,99.90
2019-02-26T05:04:11.628Z,99.90
2019-02-26T05:05:16.481Z,99.90
2019-02-26T05:07:25.393Z,99.90
2019-02-26T05:08:32.099Z,99.90
2019-02-26T05:09:37.263Z,99.90
2019-02-26T05:10:48.921Z,99.90
2019-02-26T05:12:00.374Z,99.90
2019-02-26T05:13:24.596Z,99.90
2019-02-26T05:15:39.215Z,99.90
2019-02-26T05:16:44.241Z,99.90
2019-02-26T05:17:49.667Z,99.90
2019-02-26T05:19:03.116Z,99.90
2019-02-26T05:20:16.545Z,99.90
2019-02-26T05:21:20.732Z,99.90
2019-02-26T05:22:27.672Z,99.90
2019-02-26T05:23:33.646Z,99.90
2019-02-26T05:24:41.462Z,99.90
2019-02-26T05:25:45.316Z,99.90
2019-02-26T05:26:50.113Z,99.90
2019-02-26T05:27:55.363Z,99.90
2019-02-26T05:29:00.445Z,99.90
2019-02-26T05:30:07.061Z,99.90
2019-02-26T05:31:14.482Z,99.90
2019-02-26T05:32:18.712Z,99.90
2019-02-26T05:33:25.260Z,99.90
2019-02-26T05:34:29.958Z,99.90
2019-02-26T05:35:37.829Z,99.90
2019-02-26T05:36:45.867Z,99.90
2019-02-26T05:37:49.679Z,99.90
2019-02-26T05:38:57.034Z,99.90
2019-02-26T05:40:14.956Z,99.90
2019-02-26T05:41:18.978Z,99.90
2019-02-26T05:42:24.027Z,99.90
2019-02-26T05:43:33.932Z,99.90
2019-02-26T05:44:37.552Z,99.90
2019-02-26T05:45:42.326Z,99.90
2019-02-26T05:46:49.649Z,99.90
2019-02-26T05:47:58.543Z,99.90
2019-02-26T05:49:12.584Z,99.90
2019-02-26T05:50:16.587Z,99.90
2019-02-26T05:51:21.065Z,99.90
2019-02-26T05:52:27.260Z,99.90
2019-02-26T05:53:32.494Z,99.90
2019-02-26T05:54:37.383Z,99.90
2019-02-26T05:55:44.344Z,99.90
2019-02-26T05:56:49.859Z,99.90
2019-02-26T05:58:00.955Z,99.90
2019-02-26T05:59:15.380Z,99.90
2019-02-26T06:00:33.077Z,99.90
2019-02-26T06:02:24.367Z,99.90
2019-02-26T06:03:34.491Z,99.90
2019-02-26T06:04:41.031Z,99.90
2019-02-26T06:05:48.938Z,99.90
2019-02-26T06:07:04.736Z,99.90
2019-02-26T06:08:11.966Z,99.90
2019-02-26T06:09:24.930Z,99.90
2019-02-26T06:10:30.438Z,99.90
2019-02-26T06:11:36.799Z,99.90
2019-02-26T06:12:48.086Z,99.90
2019-02-26T06:13:55.531Z,99.90
2019-02-26T06:15:04.099Z,99.90
2019-02-26T06:16:09.089Z,99.90
2019-02-26T06:17:15.486Z,99.90
2019-02-26T06:18:25.376Z,99.90
2019-02-26T06:19:45.200Z,99.90
2019-02-26T06:20:51.583Z,99.90
2019-02-26T06:22:03.536Z,99.90
2019-02-26T06:23:08.802Z,99.90
2019-02-26T06:24:24.395Z,99.90
2019-02-26T06:25:28.175Z,99.90
2019-02-26T06:26:36.075Z,99.90
2019-02-26T06:27:40.359Z,99.90
2019-02-26T06:28:52.839Z,99.90
2019-02-26T06:30:00.093Z,99.90
2019-02-26T06:31:07.386Z,99.90
2019-02-26T06:32:14.552Z,99.90
2019-02-26T06:33:19.757Z,99.90
2019-02-26T06:34:24.731Z,99.90
2019-02-26T06:36:08.157Z,99.90
2019-02-26T06:37:35.408Z,99.90
2019-02-26T06:38:38.682Z,99.90
2019-02-26T06:39:43.551Z,99.90
2019-02-26T06:40:52.584Z,99.90
2019-02-26T06:42:05.123Z,99.90
2019-02-26T06:43:09.133Z,99.90
2019-02-26T06:44:13.918Z,99.90
2019-02-26T06:45:18.732Z,99.90
2019-02-26T06:46:26.209Z,99.90
2019-02-26T06:47:31.559Z,99.90
2019-02-26T06:48:40.354Z,99.90
2019-02-26T06:49:47.957Z,99.90
2019-02-26T06:50:52.747Z,99.90
2019-02-26T06:52:00.239Z,99.90
2019-02-26T06:53:08.534Z,99.90
2019-02-26T06:54:15.370Z,99.90
2019-02-26T06:55:19.712Z,99.90
2019-02-26T06:56:25.246Z,99.90
2019-02-26T06:57:34.688Z,99.90
2019-02-26T06:58:44.959Z,99.90
2019-02-26T06:59:50.823Z,99.90
2019-02-26T07:01:01.497Z,99.90
2019-02-26T07:02:08.807Z,99.90
2019-02-26T07:03:32.853Z,99.90
2019-02-26T07:04:38.473Z,99.90
2019-02-26T07:05:46.466Z,99.90
2019-02-26T07:06:59.180Z,99.90
2019-02-26T07:08:04.266Z,99.90
2019-02-26T07:09:10.830Z,99.90
2019-02-26T07:10:18.358Z,99.90
2019-02-26T07:11:21.709Z,99.90
2019-02-26T07:12:28.126Z,99.90
2019-02-26T07:13:33.945Z,99.90
2019-02-26T07:14:39.460Z,99.90
2019-02-26T07:15:49.513Z,99.90
2019-02-26T07:16:56.544Z,99.90
2019-02-26T07:18:04.409Z,99.90
2019-02-26T07:19:09.636Z,99.90
2019-02-26T07:20:15.208Z,99.90
2019-02-26T07:21:20.991Z,99.90
2019-02-26T07:22:26.482Z,99.90
2019-02-26T07:23:34.578Z,99.90
2019-02-26T07:25:44.167Z,99.90
2019-02-26T07:26:49.410Z,99.90
2019-02-26T07:28:02.948Z,99.90
2019-02-26T07:30:54.140Z,99.90
2019-02-26T07:32:07.669Z,99.90
2019-02-26T07:33:27.852Z,99.90
2019-02-26T07:34:44.584Z,99.90
2019-02-26T07:35:48.727Z,99.90
2019-02-26T07:36:56.654Z,99.90
2019-02-26T07:38:03.661Z,99.90
2019-02-26T07:55:38.200Z,99.90
2019-02-26T07:56:44.503Z,99.90
2019-02-26T07:58:00.573Z,99.90
2019-02-26T07:59:09.449Z,99.90
2019-02-26T08:00:15.368Z,99.90
2019-02-26T08:01:20.492Z,99.90
2019-02-26T08:02:27.768Z,99.90
2019-02-26T08:04:41.787Z,99.90
2019-02-26T08:09:04.642Z,99.90
2019-02-26T08:10:12.348Z,99.90
2019-02-26T08:11:18.196Z,99.90
2019-02-26T08:13:31.709Z,99.90
2019-02-26T08:14:40.191Z,99.90
2019-02-26T08:15:45.131Z,99.90
2019-02-26T08:17:06.270Z,99.90
2019-02-26T08:18:11.261Z,99.90
2019-02-26T08:19:16.184Z,99.90
2019-02-26T08:26:57.656Z,99.90
2019-02-26T08:32:30.468Z,99.90
2019-02-26T08:33:38.511Z,99.90
2019-02-26T08:55:24.540Z,99.90
2019-02-26T09:00:02.217Z,99.90
2019-02-26T09:01:50.125Z,99.90
2019-02-26T09:02:56.702Z,99.90
2019-02-26T09:08:01.585Z,99.90
2019-02-26T09:10:43.788Z,99.90
2019-02-26T09:12:56.579Z,99.90
2019-02-26T09:15:12.104Z,99.90
2019-02-26T09:16:25.094Z,99.90
2019-02-26T09:18:38.225Z,99.90
2019-02-26T09:19:44.154Z,99.90
2019-02-26T09:21:54.754Z,99.90
2019-02-26T09:23:02.524Z,99.90
2019-02-26T09:25:20.416Z,99.90
2019-02-26T09:26:26.529Z,99.90
2019-02-26T09:27:35.082Z,99.90
2019-02-26T09:28:47.537Z,99.90
2019-02-26T09:29:51.835Z,99.90
2019-02-26T09:31:00.961Z,99.90
2019-02-26T09:32:06.742Z,99.90
2019-02-26T09:33:18.544Z,99.90
2019-02-26T09:34:26.673Z,99.90
2019-02-26T09:35:42.298Z,99.90
2019-02-26T09:36:50.657Z,99.90
2019-02-26T09:39:00.046Z,99.90
2019-02-26T09:40:14.344Z,99.90
2019-02-26T09:41:21.483Z,99.90
2019-02-26T09:42:27.837Z,99.90
2019-02-26T09:44:40.683Z,99.90
2019-02-26T09:45:48.242Z,99.90
2019-02-26T09:46:55.359Z,99.90
2019-02-26T09:48:01.285Z,99.90
2019-02-26T09:49:09.962Z,99.90
2019-02-26T09:50:17.566Z,99.90
2019-02-26T09:51:25.665Z,99.90
2019-02-26T09:53:37.215Z,99.90
2019-02-26T09:55:52.076Z,99.90
2019-02-26T09:56:59.106Z,99.90
2019-02-26T09:58:06.103Z,99.90
2019-02-26T09:59:14.839Z,99.90
2019-02-26T10:00:23.591Z,99.90
2019-02-26T10:01:30.575Z,99.90
2019-02-26T10:03:41.446Z,99.90
2019-02-26T10:04:49.610Z,99.90
2019-02-26T10:07:07.552Z,99.90
2019-02-26T10:08:17.297Z,99.90
2019-02-26T10:18:56.721Z,99.90
2019-02-26T10:20:04.991Z,99.90
2019-02-26T10:21:20.352Z,99.90
2019-02-26T10:22:49.313Z,99.90
2019-02-26T10:23:56.814Z,99.90
2019-02-26T10:25:23.254Z,99.90
2019-02-26T10:26:30.761Z,99.90
2019-02-26T10:27:38.817Z,99.90
2019-02-26T10:28:46.954Z,99.90
2019-02-26T10:29:52.067Z,99.90
2019-02-26T10:31:01.784Z,99.90
2019-02-26T10:32:06.724Z,99.90
2019-02-26T10:33:17.439Z,99.90
2019-02-26T10:34:25.620Z,99.90
2019-02-26T10:35:38.881Z,99.90
2019-02-26T10:36:49.700Z,99.90
2019-02-26T10:37:57.072Z,99.90
2019-02-26T10:39:07.374Z,99.90
2019-02-26T10:40:14.445Z,99.90
2019-02-26T10:41:21.137Z,99.90
2019-02-26T10:42:26.655Z,99.90
2019-02-26T10:43:32.022Z,99.90
2019-02-26T10:44:38.684Z,99.90
2019-02-26T10:45:47.286Z,99.90
2019-02-26T10:46:50.935Z,99.90
2019-02-26T10:47:56.925Z,99.90
2019-02-26T10:49:03.431Z,99.90
2019-02-26T10:50:13.125Z,99.90
2019-02-26T10:51:18.443Z,99.90
2019-02-26T10:53:06.724Z,99.90
2019-02-26T10:54:08.700Z,99.90
2019-02-26T10:55:15.010Z,99.90
2019-02-26T10:56:19.055Z,99.90
2019-02-26T10:57:26.445Z,99.90
2019-02-26T10:59:27.103Z,99.90
2019-02-26T11:00:35.276Z,99.90
2019-02-26T11:01:41.999Z,99.90
2019-02-26T11:02:48.451Z,99.90
2019-02-26T11:04:05.187Z,99.90
2019-02-26T11:05:14.374Z,99.90
2019-02-26T11:06:22.141Z,99.90
2019-02-26T11:07:55.733Z,99.90
2019-02-26T11:09:08.997Z,99.90
2019-02-26T11:10:41.341Z,99.90
2019-02-26T11:12:13.134Z,99.90
2019-02-26T11:13:28.233Z,99.90
2019-02-26T11:14:36.226Z,99.90
2019-02-26T11:15:43.674Z,99.90
2019-02-26T11:16:55.139Z,99.90
2019-02-26T11:18:03.115Z,99.90
2019-02-26T11:19:14.464Z,99.90
2019-02-26T11:20:27.055Z,99.90
2019-02-26T11:21:50.064Z,99.90
2019-02-26T11:22:58.465Z,99.90
2019-02-26T11:24:04.145Z,99.90
2019-02-26T11:25:16.368Z,99.90
2019-02-26T11:26:54.064Z,99.90
2019-02-26T11:28:49.489Z,99.90
2019-02-26T11:29:57.672Z,99.90
2019-02-26T11:31:02.626Z,99.90
2019-02-26T11:32:10.251Z,99.90
2019-02-26T11:33:22.833Z,99.90
2019-02-26T11:34:30.396Z,99.90
2019-02-26T11:35:34.761Z,99.90
2019-02-26T11:36:45.271Z,99.90
2019-02-26T11:37:52.264Z,99.90
2019-02-26T11:39:11.905Z,99.90
2019-02-26T11:40:24.801Z,99.90
2019-02-26T11:41:33.270Z,99.90
2019-02-26T11:42:39.906Z,99.90
2019-02-26T11:43:48.396Z,99.90
2019-02-26T11:44:54.252Z,99.90
2019-02-26T11:46:01.480Z,99.90
2019-02-26T11:47:11.234Z,99.90
2019-02-26T11:48:17.605Z,99.90
2019-02-26T11:49:37.005Z,99.90
2019-02-26T11:50:44.527Z,99.90
2019-02-26T11:51:55.380Z,99.60
2019-02-26T11:53:03.294Z,99.20
2019-02-26T11:54:15.670Z,99.30
2019-02-26T11:55:24.243Z,99.20
2019-02-26T11:56:38.506Z,98.40
2019-02-26T11:57:49.807Z,97.10
2019-02-26T11:58:55.253Z,96.00
2019-02-26T12:00:01.980Z,94.90
2019-02-26T12:01:13.279Z,92.60
2019-02-26T12:02:26.688Z,87.70
2019-02-26T12:03:38.983Z,79.20
2019-02-26T12:04:49.561Z,73.10
2019-02-26T12:05:56.627Z,66.20
2019-02-26T12:07:09.824Z,58.70
2019-02-26T12:08:16.743Z,54.40
2019-02-26T12:09:22.665Z,51.20
2019-02-26T12:10:30.538Z,48.90
2019-02-26T12:11:34.751Z,46.40
2019-02-26T12:12:40.348Z,44.20
2019-02-26T12:13:53.184Z,42.10
2019-02-26T12:15:06.627Z,40.70
2019-02-26T12:16:14.105Z,39.60
2019-02-26T12:17:19.526Z,38.30
2019-02-26T12:18:26.236Z,36.30
2019-02-26T12:19:39.372Z,36.40
2019-02-26T12:21:20.548Z,36.30
2019-02-26T12:22:36.089Z,35.50
2019-02-26T12:23:43.478Z,34.70
2019-02-26T12:24:55.775Z,34.00
2019-02-26T12:28:09.074Z,33.90
2019-02-26T12:29:29.083Z,33.20
2019-02-26T12:30:43.904Z,32.50
2019-02-26T12:31:50.264Z,32.40
2019-02-26T12:32:55.645Z,32.30
2019-02-26T12:34:04.729Z,32.00
2019-02-26T12:35:20.340Z,31.90
2019-02-26T12:36:29.853Z,31.10
2019-02-26T12:37:40.716Z,31.20
2019-02-26T12:38:48.232Z,30.80
2019-02-26T12:39:55.493Z,30.30
2019-02-26T12:41:08.178Z,30.50
2019-02-26T12:42:15.837Z,29.70
2019-02-26T12:43:22.995Z,29.40
2019-02-26T12:44:37.439Z,29.00
2019-02-26T12:46:38.043Z,29.20
2019-02-26T12:47:45.540Z,29.00
2019-02-26T12:48:50.344Z,28.70
2019-02-26T12:49:58.709Z,28.60
2019-02-26T12:51:44.102Z,28.40
2019-02-26T12:52:57.038Z,28.70
2019-02-26T12:54:03.503Z,28.00
2019-02-26T12:55:10.546Z,27.60
2019-02-26T12:56:16.595Z,27.40
2019-02-26T12:57:23.773Z,27.40
2019-02-26T12:58:30.106Z,27.50
2019-02-26T12:59:36.438Z,27.60
2019-02-26T13:00:45.098Z,27.60
2019-02-26T13:01:51.851Z,27.70
2019-02-26T13:02:57.513Z,27.50
2019-02-26T13:04:02.518Z,27.70
2019-02-26T13:05:13.460Z,28.10
2019-02-26T13:06:22.806Z,28.00
2019-02-26T13:07:29.778Z,27.60
2019-02-26T13:08:54.220Z,27.90
2019-02-26T13:10:03.363Z,28.20
2019-02-26T13:11:06.332Z,28.20
2019-02-26T13:12:12.650Z,27.90
2019-02-26T13:13:17.913Z,28.10
2019-02-26T13:14:26.400Z,27.90
2019-02-26T13:15:34.715Z,28.00
2019-02-26T13:16:39.899Z,27.90
2019-02-26T13:17:54.652Z,28.40
2019-02-26T13:19:04.363Z,28.30
2019-02-26T13:20:15.781Z,28.30
2019-02-26T13:21:26.311Z,28.30
2019-02-26T13:22:31.191Z,28.50
2019-02-26T13:23:43.082Z,28.60
2019-02-26T13:24:51.201Z,28.70
2019-02-26T13:25:57.007Z,28.70
2019-02-26T13:27:16.239Z,29.00
2019-02-26T13:28:37.903Z,29.40
2019-02-26T13:29:47.478Z,30.30
2019-02-26T13:30:50.591Z,31.00
2019-02-26T13:33:11.092Z,31.90
2019-02-26T13:35:58.800Z,32.10
2019-02-26T13:37:00.445Z,33.50
2019-02-26T13:38:14.428Z,33.60
2019-02-26T13:39:29.950Z,34.20
2019-02-26T13:40:38.717Z,34.80
2019-02-26T13:41:46.960Z,35.40
2019-02-26T13:44:12.558Z,36.30
2019-02-26T13:45:19.621Z,36.40
2019-02-26T13:46:26.396Z,36.10
2019-02-26T13:47:34.535Z,36.70
2019-02-26T13:48:42.721Z,37.10
2019-02-26T13:49:48.556Z,38.00
2019-02-26T13:50:59.187Z,38.10
2019-02-26T13:52:05.021Z,37.80
2019-02-26T13:53:21.378Z,38.00
2019-02-26T13:54:26.851Z,39.30
2019-02-26T13:55:32.667Z,39.90
2019-02-26T13:56:40.316Z,40.40
2019-02-26T13:57:45.894Z,41.00
2019-02-26T13:58:50.928Z,41.60
2019-02-26T13:59:57.801Z,41.90
2019-02-26T14:01:09.178Z,41.70
2019-02-26T14:02:25.648Z,42.60
2019-02-26T14:03:30.715Z,40.60
2019-02-26T14:05:06.270Z,42.60
2019-02-26T14:10:47.706Z,45.10
2019-02-26T14:11:54.089Z,41.20
2019-02-26T14:13:52.987Z,42.00
2019-02-26T14:17:41.259Z,42.70
2019-02-26T14:18:49.084Z,42.40
2019-02-26T14:20:08.626Z,42.70
2019-02-26T14:21:19.280Z,44.00
2019-02-26T14:22:35.600Z,44.90
2019-02-26T14:23:41.814Z,44.70
2019-02-26T14:24:47.413Z,46.40
2019-02-26T14:26:03.564Z,44.60
2019-02-26T14:27:10.907Z,46.10
2019-02-26T14:28:18.505Z,46.30
2019-02-26T14:29:36.323Z,45.30
2019-02-26T14:30:44.195Z,45.00
2019-02-26T14:31:53.081Z,49.60
2019-02-26T14:32:59.672Z,45.90
2019-02-26T14:34:28.670Z,46.30
2019-02-26T14:35:42.158Z,52.80
2019-02-26T14:36:55.820Z,49.20
2019-02-26T14:38:03.280Z,49.90
2019-02-26T14:39:08.786Z,50.30
2019-02-26T14:40:23.130Z,50.00
2019-02-26T14:41:31.412Z,50.50
2019-02-26T14:42:43.599Z,49.50
2019-02-26T14:43:49.490Z,51.10
2019-02-26T14:44:58.705Z,50.90
2019-02-26T14:46:17.382Z,50.60
2019-02-26T14:47:25.084Z,50.90
2019-02-26T14:48:31.652Z,51.40
2019-02-26T14:49:53.958Z,51.20
2019-02-26T14:51:01.047Z,51.30
2019-02-26T14:52:22.108Z,51.30
2019-02-26T14:53:42.746Z,52.20
2019-02-26T14:54:51.387Z,49.70
2019-02-26T15:28:20.250Z,58.70
2019-02-26T15:29:24.441Z,59.10
2019-02-26T15:30:29.368Z,59.30
2019-02-26T15:31:56.883Z,59.80
2019-02-26T15:33:11.125Z,60.00
2019-02-26T15:34:13.821Z,60.50
2019-02-26T15:35:19.547Z,61.60
2019-02-26T17:45:57.086Z,92.90
2019-02-26T18:02:43.004Z,93.10
2019-02-26T18:06:00.891Z,93.40
2019-02-26T18:07:19.462Z,93.70
2019-02-26T18:10:05.475Z,94.00
2019-02-26T18:11:13.303Z,94.40
2019-02-26T18:12:18.555Z,94.70
2019-02-26T18:13:23.642Z,94.80
2019-02-26T18:14:39.434Z,94.80
2019-02-26T18:15:45.240Z,94.70
2019-02-26T18:16:52.763Z,94.90
2019-02-26T18:18:01.291Z,94.90
2019-02-26T18:19:06.958Z,95.10
2019-02-26T18:20:14.589Z,95.20
2019-02-26T18:21:23.031Z,95.10
2019-02-26T18:22:31.455Z,95.00
2019-02-26T18:23:38.684Z,95.10
2019-02-26T18:25:53.124Z,95.20
2019-02-26T18:26:58.004Z,95.30
2019-02-26T18:28:08.693Z,95.50
2019-02-26T18:29:16.141Z,95.70
2019-02-26T18:30:24.521Z,95.60
2019-02-26T18:31:32.233Z,95.60
2019-02-26T18:32:49.992Z,95.60
2019-02-26T18:33:53.435Z,95.70
2019-02-26T18:35:13.774Z,96.00
2019-02-26T18:36:33.600Z,95.80
2019-02-26T18:37:46.641Z,95.90
2019-02-26T18:38:54.639Z,95.90
2019-02-26T18:40:00.233Z,96.00
2019-02-26T18:41:06.169Z,96.00
2019-02-26T18:42:11.646Z,95.90
2019-02-26T18:43:17.471Z,95.90
2019-02-26T18:44:24.058Z,96.10
2019-02-26T18:45:29.746Z,96.30
2019-02-26T18:46:38.431Z,96.20
2019-02-26T18:47:43.608Z,96.10
2019-02-26T18:49:08.273Z,96.00
2019-02-26T18:50:15.282Z,96.30
2019-02-26T18:51:24.865Z,96.20
2019-02-26T18:52:33.098Z,96.30
2019-02-26T18:53:38.126Z,96.40
2019-02-26T18:54:43.106Z,96.30
2019-02-26T18:55:48.831Z,96.60
2019-02-26T18:56:54.272Z,96.50
2019-02-26T18:57:59.183Z,96.50
2019-02-26T18:59:21.465Z,96.60
2019-02-26T19:00:32.596Z,96.70
2019-02-26T19:01:40.346Z,96.80
2019-02-26T19:02:45.984Z,96.50
2019-02-26T19:04:03.470Z,96.70
2019-02-26T19:05:29.379Z,96.70
2019-02-26T19:06:50.383Z,96.70
2019-02-26T19:07:55.825Z,96.70
2019-02-26T19:09:11.526Z,96.80
2019-02-26T19:10:26.254Z,96.80
2019-02-26T19:11:40.191Z,97.20
2019-02-26T19:13:02.452Z,97.30
2019-02-26T19:14:12.087Z,97.20
2019-02-26T19:15:23.069Z,97.20
2019-02-26T19:16:30.289Z,97.20
2019-02-26T19:17:49.594Z,97.40
2019-02-26T19:19:15.963Z,97.40
2019-02-26T19:20:57.398Z,97.30
2019-02-26T19:22:26.533Z,97.50
2019-02-26T19:23:38.321Z,97.80
2019-02-26T19:24:50.067Z,98.00
2019-02-26T19:26:00.655Z,98.10
2019-02-26T19:27:28.166Z,98.20
2019-02-26T19:28:36.712Z,98.20
2019-02-26T19:29:48.740Z,98.30
2019-02-26T19:31:09.366Z,98.40
2019-02-26T19:32:17.464Z,98.80
2019-02-26T19:33:27.090Z,98.90
2019-02-26T19:34:40.937Z,99.00
2019-02-26T19:35:51.190Z,99.30
2019-02-26T19:37:07.731Z,99.40
2019-02-26T19:38:53.100Z,99.50
2019-02-26T19:43:43.137Z,99.90
2019-02-26T19:45:47.517Z,99.90
2019-02-26T19:47:42.363Z,99.90
2019-02-26T19:48:49.599Z,99.90
2019-02-26T19:50:02.535Z,99.90
2019-02-26T19:51:10.112Z,99.90
2019-02-26T19:52:28.166Z,99.90
2019-02-26T19:53:39.450Z,99.90
2019-02-26T19:54:48.437Z,99.90
2019-02-26T19:55:58.380Z,99.90